Stamford, NY (12167)

7:03 AM EDT on September 04, 2015 (GMT -0400)
Stamford Central School | | Change Station
CLOSE
Current Station
Personal Weather Station
Location: Stamford, NY
Elevation: 1804 ft
Nearby Weather Stations

Elev 1804 ft 42.41 °N, 74.62 °W | Updated 10 minutes ago

Partly Cloudy
Partly Cloudy
60.9 °F
Feels Like 60.9 °F
N
0.0
Wind Variable Wind from ENE

Today
High -- | Low -- °F
--% Chance of Precip.
Yesterday
High -- | Low -- °F
Precip. -- in
6:26 AM 7:27 PM
Waning Gibbous, 60% visible
Pressure 30.06 in
Visibility 10.0 miles
Clouds Mostly Cloudy 3500 ft
Mostly Cloudy 6500 ft
Mostly Cloudy 26000 ft
Dew Point 54 °F
Humidity 77%
Rainfall 0.00 in
Snow Depth Not available.
UV 0.0 out of 12
Pollen 8.20 out of 12
Air Quality Not available.
Flu Activity Not available.
METAR KALB 041051Z 01007KT 10SM BKN035 BKN065 BKN260 19/12 A3007 RMK AO2 SLP180 T01890117
Pressure 30.06 in
Visibility 10.0 miles
Clouds Mostly Cloudy 3500 ft
Mostly Cloudy 6500 ft
Mostly Cloudy 26000 ft
Dew Point 54 °F
Humidity 77%
Rainfall 0.00 in
Snow Depth Not available.
UV 0.0 out of 12
Pollen 8.20 out of 12
Air Quality Not available.
Flu Activity Not available.
METAR KALB 041051Z 01007KT 10SM BKN035 BKN065 BKN260 19/12 A3007 RMK AO2 SLP180 T01890117

10-Day Weather Forecast

×

Almanac

Astronomy

Sep. 04, 2015 Rise Set
Actual Time
Civil Twilight
Nautical Twilight
Astronomical Twilight
Moon
Length of Visible Light
Length of Day
Tomorrow will be .
, % of the Moon is Illuminated

Today's Extremes

State Highs State Lows

Community

WunderPhotos

Upload Photos

1,852,150 photos uploaded!

WunderBlogs® & News

Nearby

Air Quality

  Air Quality AQ Index Pollutant
Not available.

Snow Depth

Station Depth Elevation

Earthquake Activity

City Distance Mag. Time & Date
Minimum magnitude displayed is 2.5.

Coastal Water Temperatures

Place Temperature

Stations

Nearby Weather Stations

Station Location Temp. Windchill Dew Point Humidity Wind Precip. Elev Updated Type